Latest Weather Observations for Kurnell

IDN60901

Issued at 4:31 am EST Sunday 21 July 2019 (issued every 10 minutes, with the page automatically refreshed every 10 minutes)

About weather observations | Map of Sydney area stations | Latest observations for Sydney area | Other Formats
Station Details ID: 066043 Name: KURNELL AWS Lat: -34.00 Lon: 151.21 Height: 4.0 m
Data from the previous 72 hours. | See also: Recent months at Kurnell
Date/Time
EST
Temp
°C
App
Temp
°C
Dew
Point
°C
Rel
Hum
%
Delta-T
°C
Wind Press
QNH
hPa
Press
MSL
hPa
Rain since
9am
mm
Dir  Spd
km/h
Gust
km/h
Spd
kts
Gust
kts
21/04:30am - - - - - NW 15 19 8 10 - - -
21/04:00am - - - - - NNW 17 20 9 11 - - -
21/03:30am - - - - - WNW 17 20 9 11 - - -
21/03:00am - - - - - WNW 22 28 12 15 - - -
21/02:30am - - - - - WNW 17 19 9 10 - - -
21/02:00am - - - - - NW 15 17 8 9 - - -
21/01:30am - - - - - NW 13 17 7 9 - - -
21/01:00am - - - - - NNW 15 17 8 9 - - -
21/12:30am - - - - - NNW 17 20 9 11 - - -
21/12:00am - - - - - N 11 17 6 9 - - -
 
Date/Time
EST
Temp
°C
App
Temp
°C
Dew
Point
°C
Rel
Hum
%
Delta-T
°C
Wind Press
QNH
hPa
Press
MSL
hPa
Rain since
9am
mm
Dir  Spd
km/h
Gust
km/h
Spd
kts
Gust
kts
20/11:30pm - - - - - N 11 15 6 8 - - -
20/11:00pm - - - - - N 13 17 7 9 - - -
20/10:30pm - - - - - NNW 11 17 6 9 - - -
20/10:00pm - - - - - NW 11 11 6 6 - - -
20/09:30pm - - - - - NNW 13 19 7 10 - - -
20/09:00pm - - - - - N 20 26 11 14 - - -
20/08:30pm - - - - - NNE 26 30 14 16 - - -
20/08:00pm - - - - - NNE 28 35 15 19 - - -
20/07:30pm - - - - - NNE 28 32 15 17 - - -
20/07:00pm - - - - - NNE 24 30 13 16 - - -
20/06:30pm - - - - - NNE 20 24 11 13 - - -
20/06:00pm - - - - - NNE 20 26 11 14 - - -
20/05:30pm - - - - - NNE 22 26 12 14 - - -
20/05:00pm - - - - - NNE 24 28 13 15 - - -
20/04:30pm - - - - - NE 30 33 16 18 - - -
20/04:00pm - - - - - NE 26 30 14 16 - - -
20/03:30pm - - - - - NE 26 30 14 16 - - -
20/03:00pm - - - - - NE 24 28 13 15 - - -
20/02:30pm - - - - - NNE 19 26 10 14 - - -
20/02:00pm - - - - - NE 26 32 14 17 - - -
20/01:30pm - - - - - NE 19 22 10 12 - - -
20/01:00pm - - - - - NNE 17 20 9 11 - - -
20/12:30pm - - - - - NNW 11 15 6 8 - - -
20/12:00pm - - - - - NNW 13 19 7 10 - - -
20/11:30am - - - - - NW 19 20 10 11 - - -
20/11:00am - - - - - NW 19 22 10 12 - - -
20/10:30am - - - - - NW 17 20 9 11 - - -
20/10:00am - - - - - NW 17 19 9 10 - - -
20/09:30am - - - - - NW 20 24 11 13 - - -
20/09:00am - - - - - NNW 19 22 10 12 - - -
20/08:30am - - - - - NW 17 19 9 10 - - -
20/08:00am - - - - - NW 17 20 9 11 - - -
20/07:30am - - - - - NW 15 19 8 10 - - -
20/07:00am - - - - - NW 15 19 8 10 - - -
20/06:30am - - - - - NW 17 19 9 10 - - -
20/06:00am - - - - - NNW 17 20 9 11 - - -
20/05:30am - - - - - NW 15 17 8 9 - - -
20/05:00am - - - - - NW 17 20 9 11 - - -
20/04:30am - - - - - NW 19 20 10 11 - - -
20/04:00am - - - - - NW 19 22 10 12 - - -
20/03:30am - - - - - NW 17 19 9 10 - - -
20/03:00am - - - - - NNW 17 20 9 11 - - -
20/02:30am - - - - - NNW 15 17 8 9 - - -
20/02:00am - - - - - NW 9 11 5 6 - - -
20/01:30am - - - - - WNW 11 11 6 6 - - -
20/01:00am - - - - - NW 13 15 7 8 - - -
20/12:30am - - - - - W 13 15 7 8 - - -
20/12:00am - - - - - WSW 9 11 5 6 - - -
 
Date/Time
EST
Temp
°C
App
Temp
°C
Dew
Point
°C
Rel
Hum
%
Delta-T
°C
Wind Press
QNH
hPa
Press
MSL
hPa
Rain since
9am
mm
Dir  Spd
km/h
Gust
km/h
Spd
kts
Gust
kts
19/11:30pm - - - - - WSW 13 15 7 8 - - -
19/11:00pm - - - - - WSW 13 15 7 8 - - -
19/10:30pm - - - - - WSW 11 15 6 8 - - -
19/10:00pm - - - - - SW 9 15 5 8 - - -
19/09:30pm - - - - - WSW 15 17 8 9 - - -
19/09:00pm - - - - - WSW 9 13 5 7 - - -
19/08:30pm - - - - - WSW 13 17 7 9 - - -
19/08:00pm - - - - - WSW 6 9 3 5 - - -
19/07:30pm - - - - - CALM 0 0 0 0 - - -
19/07:00pm - - - - - CALM 0 2 0 1 - - -
19/06:30pm - - - - - ESE 9 11 5 6 - - -
19/06:00pm - - - - - ESE 9 11 5 6 - - -
19/05:30pm - - - - - SE 9 11 5 6 - - -
19/05:00pm - - - - - SE 9 11 5 6 - - -
19/04:30pm - - - - - SE 7 11 4 6 - - -
19/04:00pm - - - - - SE 11 15 6 8 - - -
19/03:30pm - - - - - ESE 11 15 6 8 - - -
19/03:00pm - - - - - ESE 11 13 6 7 - - -
19/02:30pm - - - - - ESE 13 15 7 8 - - -
19/02:00pm - - - - - SSE 11 15 6 8 - - -
19/01:30pm - - - - - S 13 19 7 10 - - -
19/01:00pm - - - - - SSW 17 24 9 13 - - -
19/12:30pm - - - - - SW 19 28 10 15 - - -
19/12:00pm - - - - - W 22 30 12 16 - - -
19/11:30am - - - - - W 20 30 11 16 - - -
19/11:00am - - - - - W 24 30 13 16 - - -
19/10:30am - - - - - WSW 26 32 14 17 - - -
19/10:00am - - - - - W 24 28 13 15 - - -
19/09:30am - - - - - WNW 26 30 14 16 - - -
19/09:00am - - - - - WNW 30 33 16 18 - - -
19/08:30am - - - - - WNW 26 30 14 16 - - -
19/08:00am - - - - - WNW 28 32 15 17 - - -
19/07:30am - - - - - WNW 26 30 14 16 - - -
19/07:00am - - - - - NW 28 32 15 17 - - -
19/06:30am - - - - - WNW 26 30 14 16 - - -
19/06:00am - - - - - WNW 28 33 15 18 - - -
19/05:30am - - - - - WNW 35 43 19 23 - - -
19/05:00am - - - - - WNW 20 26 11 14 - - -
19/04:30am - - - - - WNW 15 19 8 10 - - -
19/04:00am - - - - - WNW 15 20 8 11 - - -
19/03:30am - - - - - W 15 20 8 11 - - -
19/03:00am - - - - - WNW 19 26 10 14 - - -
19/02:30am - - - - - WNW 19 22 10 12 - - -
19/02:00am - - - - - WNW 19 24 10 13 - - -
19/01:30am - - - - - NW 24 28 13 15 - - -
19/01:00am - - - - - WNW 20 26 11 14 - - -
19/12:30am - - - - - WNW 20 24 11 13 - - -
19/12:00am - - - - - W 20 24 11 13 - - -
 
Date/Time
EST
Temp
°C
App
Temp
°C
Dew
Point
°C
Rel
Hum
%
Delta-T
°C
Wind Press
QNH
hPa
Press
MSL
hPa
Rain since
9am
mm
Dir  Spd
km/h
Gust
km/h
Spd
kts
Gust
kts
18/11:30pm - - - - - WSW 17 19 9 10 - - -
18/11:00pm - - - - - W 13 17 7 9 - - -
18/10:30pm - - - - - W 19 20 10 11 - - -
18/10:00pm - - - - - W 13 17 7 9 - - -
18/09:30pm - - - - - W 13 15 7 8 - - -
18/09:00pm - - - - - W 15 19 8 10 - - -
18/08:30pm - - - - - W 13 19 7 10 - - -
18/08:00pm - - - - - WSW 9 11 5 6 - - -
18/07:30pm - - - - - SW 13 15 7 8 - - -
18/07:00pm - - - - - SW 15 19 8 10 - - -
18/06:30pm - - - - - WSW 7 11 4 6 - - -
18/06:00pm - - - - - CALM 0 0 0 0 - - -
18/05:30pm - - - - - SSE 6 9 3 5 - - -
18/05:00pm - - - - - SSE 2 7 1 4 - - -
18/04:30pm - - - - - S 9 13 5 7 - - -
18/04:00pm - - - - - SE 15 19 8 10 - - -
18/03:30pm - - - - - SSE 13 19 7 10 - - -
18/03:00pm - - - - - SSE 15 19 8 10 - - -
18/02:30pm - - - - - SSE 13 19 7 10 - - -
18/02:00pm - - - - - S 19 26 10 14 - - -
18/01:30pm - - - - - SSW 19 24 10 13 - - -
18/01:00pm - - - - - SSW 20 28 11 15 - - -
18/12:30pm - - - - - WSW 22 30 12 16 - - -
18/12:00pm - - - - - W 19 26 10 14 - - -
18/11:30am - - - - - W 19 24 10 13 - - -
18/11:00am - - - - - WNW 26 28 14 15 - - -
18/10:30am - - - - - W 28 33 15 18 - - -
18/10:00am - - - - - W 28 32 15 17 - - -
18/09:30am - - - - - WNW 28 32 15 17 - - -
18/09:00am - - - - - WNW 24 30 13 16 - - -
18/08:30am - - - - - WNW 19 28 10 15 - - -
18/08:00am - - - - - WNW 26 30 14 16 - - -
18/07:30am - - - - - WNW 22 28 12 15 - - -
18/07:00am - - - - - WNW 24 28 13 15 - - -
18/06:30am - - - - - WNW 19 26 10 14 - - -
18/06:00am - - - - - WNW 24 30 13 16 - - -
18/05:30am - - - - - W 28 33 15 18 - - -
18/05:00am - - - - - W 33 41 18 22 - - -

Latest Capital City Observations: Canberra | Sydney | Melbourne | Brisbane | Adelaide | Perth | Hobart | Darwin

Other formats

Comma delimited format used in spreadsheet applications
http://www.bom.gov.au/fwo/IDN60901/IDN60901.95756.axf

JavaScript Object Notation format (JSON) in row-major order
http://www.bom.gov.au/fwo/IDN60901/IDN60901.95756.json

Data quality

Most of these data are generated automatically and are frequently updated. Quality checks on data are not normally performed. It is possible for incorrect values to appear. Refer to information at About Latest Weather Observations and please check the disclaimer before using these data.